sensor_id;sensor_type;location;lat;lon;timestamp;P1;durP1;ratioP1;P2;durP2;ratioP2
12385;SDS011;6257;57.634;18.310;2023-05-07T00:01:41;2.77;;;2.47;;
12385;SDS011;6257;57.634;18.310;2023-05-07T00:04:08;4.77;;;2.33;;
12385;SDS011;6257;57.634;18.310;2023-05-07T00:06:35;4.30;;;2.50;;
12385;SDS011;6257;57.634;18.310;2023-05-07T00:09:04;4.60;;;2.50;;
12385;SDS011;6257;57.634;18.310;2023-05-07T00:11:31;3.80;;;2.30;;
12385;SDS011;6257;57.634;18.310;2023-05-07T00:13:59;4.83;;;2.60;;
12385;SDS011;6257;57.634;18.310;2023-05-07T00:16:26;4.53;;;2.00;;
12385;SDS011;6257;57.634;18.310;2023-05-07T00:18:53;3.37;;;2.07;;
12385;SDS011;6257;57.634;18.310;2023-05-07T00:21:20;4.77;;;2.40;;
12385;SDS011;6257;57.634;18.310;2023-05-07T00:23:47;3.27;;;2.30;;
12385;SDS011;6257;57.634;18.310;2023-05-07T00:26:16;4.70;;;2.40;;
12385;SDS011;6257;57.634;18.310;2023-05-07T00:28:43;5.43;;;2.30;;
12385;SDS011;6257;57.634;18.310;2023-05-07T00:31:10;6.50;;;2.30;;
12385;SDS011;6257;57.634;18.310;2023-05-07T00:33:37;4.60;;;2.30;;
12385;SDS011;6257;57.634;18.310;2023-05-07T00:36:05;4.30;;;1.83;;
12385;SDS011;6257;57.634;18.310;2023-05-07T00:38:32;4.30;;;2.37;;
12385;SDS011;6257;57.634;18.310;2023-05-07T00:40:59;4.83;;;2.30;;
12385;SDS011;6257;57.634;18.310;2023-05-07T00:43:28;5.20;;;2.50;;
12385;SDS011;6257;57.634;18.310;2023-05-07T00:45:55;6.50;;;2.20;;
12385;SDS011;6257;57.634;18.310;2023-05-07T00:48:23;3.27;;;2.30;;
12385;SDS011;6257;57.634;18.310;2023-05-07T00:50:51;2.60;;;1.77;;
12385;SDS011;6257;57.634;18.310;2023-05-07T00:53:18;3.03;;;2.40;;
12385;SDS011;6257;57.634;18.310;2023-05-07T00:55:45;3.07;;;2.23;;
12385;SDS011;6257;57.634;18.310;2023-05-07T00:58:12;4.90;;;2.40;;
12385;SDS011;6257;57.634;18.310;2023-05-07T01:00:41;3.33;;;2.53;;
12385;SDS011;6257;57.634;18.310;2023-05-07T01:03:08;5.23;;;2.70;;
12385;SDS011;6257;57.634;18.310;2023-05-07T01:05:35;3.53;;;2.40;;
12385;SDS011;6257;57.634;18.310;2023-05-07T01:08:03;2.93;;;2.30;;
12385;SDS011;6257;57.634;18.310;2023-05-07T01:10:31;4.23;;;2.47;;
12385;SDS011;6257;57.634;18.310;2023-05-07T01:12:58;4.63;;;2.60;;
12385;SDS011;6257;57.634;18.310;2023-05-07T01:15:26;4.20;;;2.60;;
12385;SDS011;6257;57.634;18.310;2023-05-07T01:17:55;5.00;;;2.60;;
12385;SDS011;6257;57.634;18.310;2023-05-07T01:20:22;4.77;;;2.67;;
12385;SDS011;6257;57.634;18.310;2023-05-07T01:22:51;3.90;;;2.70;;
12385;SDS011;6257;57.634;18.310;2023-05-07T01:25:19;3.37;;;2.43;;
12385;SDS011;6257;57.634;18.310;2023-05-07T01:27:46;4.57;;;2.63;;
12385;SDS011;6257;57.634;18.310;2023-05-07T01:30:14;4.50;;;2.87;;
12385;SDS011;6257;57.634;18.310;2023-05-07T01:32:42;3.90;;;2.60;;
12385;SDS011;6257;57.634;18.310;2023-05-07T01:35:13;5.47;;;2.57;;
12385;SDS011;6257;57.634;18.310;2023-05-07T01:37:44;4.43;;;2.80;;
12385;SDS011;6257;57.634;18.310;2023-05-07T01:40:14;6.70;;;2.60;;
12385;SDS011;6257;57.634;18.310;2023-05-07T01:42:41;5.87;;;2.43;;
12385;SDS011;6257;57.634;18.310;2023-05-07T01:45:10;3.97;;;2.57;;
12385;SDS011;6257;57.634;18.310;2023-05-07T01:47:37;4.70;;;2.60;;
12385;SDS011;6257;57.634;18.310;2023-05-07T01:50:06;3.60;;;2.50;;
12385;SDS011;6257;57.634;18.310;2023-05-07T01:52:35;4.13;;;2.40;;
12385;SDS011;6257;57.634;18.310;2023-05-07T01:55:04;3.47;;;2.33;;
12385;SDS011;6257;57.634;18.310;2023-05-07T01:57:33;4.00;;;2.40;;
12385;SDS011;6257;57.634;18.310;2023-05-07T02:00:00;5.20;;;2.80;;
12385;SDS011;6257;57.634;18.310;2023-05-07T02:02:31;5.87;;;2.70;;
12385;SDS011;6257;57.634;18.310;2023-05-07T02:04:59;8.03;;;3.20;;
12385;SDS011;6257;57.634;18.310;2023-05-07T02:07:26;4.27;;;2.60;;
12385;SDS011;6257;57.634;18.310;2023-05-07T02:09:54;4.57;;;2.50;;
12385;SDS011;6257;57.634;18.310;2023-05-07T02:12:21;3.90;;;2.47;;
12385;SDS011;6257;57.634;18.310;2023-05-07T02:14:50;4.80;;;2.77;;
12385;SDS011;6257;57.634;18.310;2023-05-07T02:17:17;4.27;;;2.43;;
12385;SDS011;6257;57.634;18.310;2023-05-07T02:19:44;6.33;;;2.67;;
12385;SDS011;6257;57.634;18.310;2023-05-07T02:22:12;6.77;;;2.60;;
12385;SDS011;6257;57.634;18.310;2023-05-07T02:24:39;4.03;;;2.57;;
12385;SDS011;6257;57.634;18.310;2023-05-07T02:27:06;4.27;;;2.67;;
12385;SDS011;6257;57.634;18.310;2023-05-07T02:29:33;6.30;;;2.40;;
12385;SDS011;6257;57.634;18.310;2023-05-07T02:32:01;4.43;;;2.60;;
12385;SDS011;6257;57.634;18.310;2023-05-07T02:34:28;6.50;;;2.83;;
12385;SDS011;6257;57.634;18.310;2023-05-07T02:36:55;11.50;;;3.00;;
12385;SDS011;6257;57.634;18.310;2023-05-07T02:39:22;3.80;;;2.53;;
12385;SDS011;6257;57.634;18.310;2023-05-07T02:41:49;6.27;;;2.83;;
12385;SDS011;6257;57.634;18.310;2023-05-07T02:44:16;5.00;;;2.90;;
12385;SDS011;6257;57.634;18.310;2023-05-07T02:46:43;5.20;;;2.67;;
12385;SDS011;6257;57.634;18.310;2023-05-07T02:49:12;5.23;;;2.77;;
12385;SDS011;6257;57.634;18.310;2023-05-07T02:51:39;3.93;;;2.77;;
12385;SDS011;6257;57.634;18.310;2023-05-07T02:54:06;3.67;;;2.53;;
12385;SDS011;6257;57.634;18.310;2023-05-07T02:56:33;3.93;;;2.80;;
12385;SDS011;6257;57.634;18.310;2023-05-07T02:59:00;7.53;;;2.90;;
12385;SDS011;6257;57.634;18.310;2023-05-07T03:01:27;3.63;;;2.50;;
12385;SDS011;6257;57.634;18.310;2023-05-07T03:03:54;4.20;;;2.50;;
12385;SDS011;6257;57.634;18.310;2023-05-07T03:06:23;4.07;;;2.67;;
12385;SDS011;6257;57.634;18.310;2023-05-07T03:08:51;5.63;;;2.57;;
12385;SDS011;6257;57.634;18.310;2023-05-07T03:11:18;3.50;;;2.80;;
12385;SDS011;6257;57.634;18.310;2023-05-07T03:13:46;5.70;;;2.87;;
12385;SDS011;6257;57.634;18.310;2023-05-07T03:16:15;4.67;;;2.23;;
12385;SDS011;6257;57.634;18.310;2023-05-07T03:18:42;5.73;;;2.50;;
12385;SDS011;6257;57.634;18.310;2023-05-07T03:21:09;3.70;;;2.60;;
12385;SDS011;6257;57.634;18.310;2023-05-07T03:23:38;4.20;;;2.73;;
12385;SDS011;6257;57.634;18.310;2023-05-07T03:26:05;4.87;;;2.47;;
12385;SDS011;6257;57.634;18.310;2023-05-07T03:28:32;4.77;;;2.30;;
12385;SDS011;6257;57.634;18.310;2023-05-07T03:30:59;4.13;;;2.50;;
12385;SDS011;6257;57.634;18.310;2023-05-07T03:33:27;4.87;;;2.50;;
12385;SDS011;6257;57.634;18.310;2023-05-07T03:35:54;4.67;;;2.50;;
12385;SDS011;6257;57.634;18.310;2023-05-07T03:38:21;4.97;;;2.40;;
12385;SDS011;6257;57.634;18.310;2023-05-07T03:40:49;4.57;;;2.50;;
12385;SDS011;6257;57.634;18.310;2023-05-07T03:43:17;5.40;;;2.40;;
12385;SDS011;6257;57.634;18.310;2023-05-07T03:45:44;7.77;;;2.60;;
12385;SDS011;6257;57.634;18.310;2023-05-07T03:48:11;4.07;;;2.30;;
12385;SDS011;6257;57.634;18.310;2023-05-07T03:50:38;3.77;;;2.40;;
12385;SDS011;6257;57.634;18.310;2023-05-07T03:53:05;4.30;;;2.30;;
12385;SDS011;6257;57.634;18.310;2023-05-07T03:55:32;3.93;;;2.27;;
12385;SDS011;6257;57.634;18.310;2023-05-07T03:58:02;3.67;;;2.60;;
12385;SDS011;6257;57.634;18.310;2023-05-07T04:00:29;3.93;;;2.07;;
12385;SDS011;6257;57.634;18.310;2023-05-07T04:02:58;2.97;;;2.10;;
12385;SDS011;6257;57.634;18.310;2023-05-07T04:05:25;5.43;;;2.30;;
12385;SDS011;6257;57.634;18.310;2023-05-07T04:07:53;2.33;;;2.03;;
12385;SDS011;6257;57.634;18.310;2023-05-07T04:10:20;2.63;;;2.13;;
12385;SDS011;6257;57.634;18.310;2023-05-07T04:12:47;4.13;;;1.97;;
12385;SDS011;6257;57.634;18.310;2023-05-07T04:15:15;4.67;;;1.90;;
12385;SDS011;6257;57.634;18.310;2023-05-07T04:17:43;2.70;;;1.73;;
12385;SDS011;6257;57.634;18.310;2023-05-07T04:20:10;11.73;;;3.57;;
12385;SDS011;6257;57.634;18.310;2023-05-07T04:22:40;3.27;;;1.80;;
12385;SDS011;6257;57.634;18.310;2023-05-07T04:25:08;4.00;;;2.07;;
12385;SDS011;6257;57.634;18.310;2023-05-07T04:27:37;2.93;;;1.70;;
12385;SDS011;6257;57.634;18.310;2023-05-07T04:30:04;2.63;;;1.60;;
12385;SDS011;6257;57.634;18.310;2023-05-07T04:32:33;2.87;;;1.70;;
12385;SDS011;6257;57.634;18.310;2023-05-07T04:35:01;3.67;;;2.07;;
12385;SDS011;6257;57.634;18.310;2023-05-07T04:37:28;2.90;;;1.50;;
12385;SDS011;6257;57.634;18.310;2023-05-07T04:39:58;4.47;;;1.73;;
12385;SDS011;6257;57.634;18.310;2023-05-07T04:42:25;4.07;;;1.93;;
12385;SDS011;6257;57.634;18.310;2023-05-07T04:44:52;3.63;;;1.70;;
12385;SDS011;6257;57.634;18.310;2023-05-07T04:47:19;1.50;;;1.23;;
12385;SDS011;6257;57.634;18.310;2023-05-07T04:49:48;2.53;;;1.60;;
12385;SDS011;6257;57.634;18.310;2023-05-07T04:52:15;2.73;;;1.43;;
12385;SDS011;6257;57.634;18.310;2023-05-07T04:54:43;2.50;;;1.67;;
12385;SDS011;6257;57.634;18.310;2023-05-07T04:57:10;2.73;;;1.47;;
12385;SDS011;6257;57.634;18.310;2023-05-07T04:59:37;2.53;;;1.80;;
12385;SDS011;6257;57.634;18.310;2023-05-07T05:02:04;3.63;;;1.50;;
12385;SDS011;6257;57.634;18.310;2023-05-07T05:04:31;1.87;;;1.63;;
12385;SDS011;6257;57.634;18.310;2023-05-07T05:06:59;3.00;;;1.50;;
12385;SDS011;6257;57.634;18.310;2023-05-07T05:09:28;3.13;;;1.77;;
12385;SDS011;6257;57.634;18.310;2023-05-07T05:11:55;2.73;;;1.33;;
12385;SDS011;6257;57.634;18.310;2023-05-07T05:14:22;7.43;;;2.07;;
12385;SDS011;6257;57.634;18.310;2023-05-07T05:16:50;2.90;;;1.50;;
12385;SDS011;6257;57.634;18.310;2023-05-07T05:19:17;2.57;;;1.40;;
12385;SDS011;6257;57.634;18.310;2023-05-07T05:21:43;3.37;;;1.90;;
12385;SDS011;6257;57.634;18.310;2023-05-07T05:24:12;2.93;;;1.60;;
12385;SDS011;6257;57.634;18.310;2023-05-07T05:26:40;4.30;;;1.53;;
12385;SDS011;6257;57.634;18.310;2023-05-07T05:29:07;2.30;;;1.60;;
12385;SDS011;6257;57.634;18.310;2023-05-07T05:31:34;3.00;;;1.70;;
12385;SDS011;6257;57.634;18.310;2023-05-07T05:34:01;2.90;;;1.30;;
12385;SDS011;6257;57.634;18.310;2023-05-07T05:36:29;3.13;;;1.83;;
12385;SDS011;6257;57.634;18.310;2023-05-07T05:38:56;2.97;;;1.90;;
12385;SDS011;6257;57.634;18.310;2023-05-07T05:41:25;3.00;;;1.77;;
12385;SDS011;6257;57.634;18.310;2023-05-07T05:43:52;2.40;;;1.70;;
12385;SDS011;6257;57.634;18.310;2023-05-07T05:46:19;2.43;;;1.70;;
12385;SDS011;6257;57.634;18.310;2023-05-07T05:48:46;4.47;;;1.43;;
12385;SDS011;6257;57.634;18.310;2023-05-07T05:51:13;2.07;;;1.50;;
12385;SDS011;6257;57.634;18.310;2023-05-07T05:53:40;1.90;;;1.67;;
12385;SDS011;6257;57.634;18.310;2023-05-07T05:56:07;3.30;;;1.80;;
12385;SDS011;6257;57.634;18.310;2023-05-07T05:58:36;3.03;;;1.63;;
12385;SDS011;6257;57.634;18.310;2023-05-07T06:01:03;3.77;;;1.57;;
12385;SDS011;6257;57.634;18.310;2023-05-07T06:03:30;2.03;;;1.57;;
12385;SDS011;6257;57.634;18.310;2023-05-07T06:05:58;3.63;;;1.77;;
12385;SDS011;6257;57.634;18.310;2023-05-07T06:08:29;2.13;;;1.20;;
12385;SDS011;6257;57.634;18.310;2023-05-07T06:10:56;1.93;;;1.47;;
12385;SDS011;6257;57.634;18.310;2023-05-07T06:13:23;2.23;;;1.47;;
12385;SDS011;6257;57.634;18.310;2023-05-07T06:15:52;2.83;;;1.53;;
12385;SDS011;6257;57.634;18.310;2023-05-07T06:18:19;2.50;;;1.67;;
12385;SDS011;6257;57.634;18.310;2023-05-07T06:20:46;5.33;;;1.77;;
12385;SDS011;6257;57.634;18.310;2023-05-07T06:23:13;2.10;;;1.50;;
12385;SDS011;6257;57.634;18.310;2023-05-07T06:25:40;4.47;;;1.80;;
12385;SDS011;6257;57.634;18.310;2023-05-07T06:28:07;4.20;;;1.77;;
12385;SDS011;6257;57.634;18.310;2023-05-07T06:30:36;2.03;;;1.33;;
12385;SDS011;6257;57.634;18.310;2023-05-07T06:33:04;5.23;;;1.50;;
12385;SDS011;6257;57.634;18.310;2023-05-07T06:35:31;5.83;;;1.83;;
12385;SDS011;6257;57.634;18.310;2023-05-07T06:37:59;2.50;;;1.43;;
12385;SDS011;6257;57.634;18.310;2023-05-07T06:40:26;2.07;;;1.50;;
12385;SDS011;6257;57.634;18.310;2023-05-07T06:42:53;2.13;;;1.80;;
12385;SDS011;6257;57.634;18.310;2023-05-07T06:45:20;3.53;;;1.60;;
12385;SDS011;6257;57.634;18.310;2023-05-07T06:47:47;3.27;;;1.90;;
12385;SDS011;6257;57.634;18.310;2023-05-07T06:50:16;3.37;;;1.40;;
12385;SDS011;6257;57.634;18.310;2023-05-07T06:52:43;2.27;;;1.30;;
12385;SDS011;6257;57.634;18.310;2023-05-07T06:55:10;4.13;;;1.50;;
12385;SDS011;6257;57.634;18.310;2023-05-07T06:57:37;2.23;;;1.53;;
12385;SDS011;6257;57.634;18.310;2023-05-07T07:00:05;3.07;;;1.37;;
12385;SDS011;6257;57.634;18.310;2023-05-07T07:02:34;4.10;;;1.33;;
12385;SDS011;6257;57.634;18.310;2023-05-07T07:05:01;5.17;;;1.80;;
12385;SDS011;6257;57.634;18.310;2023-05-07T07:07:29;3.63;;;1.70;;
12385;SDS011;6257;57.634;18.310;2023-05-07T07:09:56;3.00;;;1.83;;
12385;SDS011;6257;57.634;18.310;2023-05-07T07:12:23;2.50;;;1.60;;
12385;SDS011;6257;57.634;18.310;2023-05-07T07:14:51;2.17;;;1.30;;
12385;SDS011;6257;57.634;18.310;2023-05-07T07:17:18;2.07;;;1.40;;
12385;SDS011;6257;57.634;18.310;2023-05-07T07:19:45;4.80;;;1.53;;
12385;SDS011;6257;57.634;18.310;2023-05-07T07:22:12;2.67;;;1.50;;
12385;SDS011;6257;57.634;18.310;2023-05-07T07:24:41;3.63;;;1.50;;
12385;SDS011;6257;57.634;18.310;2023-05-07T07:27:08;4.87;;;1.50;;
12385;SDS011;6257;57.634;18.310;2023-05-07T07:29:35;4.40;;;1.50;;
12385;SDS011;6257;57.634;18.310;2023-05-07T07:32:02;2.00;;;1.27;;
12385;SDS011;6257;57.634;18.310;2023-05-07T07:34:29;2.87;;;1.23;;
12385;SDS011;6257;57.634;18.310;2023-05-07T07:36:56;1.60;;;1.30;;
12385;SDS011;6257;57.634;18.310;2023-05-07T07:39:23;2.57;;;1.30;;
12385;SDS011;6257;57.634;18.310;2023-05-07T07:41:51;3.00;;;1.40;;
12385;SDS011;6257;57.634;18.310;2023-05-07T07:44:18;2.77;;;1.33;;
12385;SDS011;6257;57.634;18.310;2023-05-07T07:46:45;2.80;;;1.03;;
12385;SDS011;6257;57.634;18.310;2023-05-07T07:49:12;1.97;;;1.20;;
12385;SDS011;6257;57.634;18.310;2023-05-07T07:51:40;4.57;;;1.77;;
12385;SDS011;6257;57.634;18.310;2023-05-07T07:54:07;5.50;;;1.43;;
12385;SDS011;6257;57.634;18.310;2023-05-07T07:56:34;5.00;;;1.33;;
12385;SDS011;6257;57.634;18.310;2023-05-07T07:59:03;2.20;;;1.37;;
12385;SDS011;6257;57.634;18.310;2023-05-07T08:01:30;1.77;;;1.10;;
12385;SDS011;6257;57.634;18.310;2023-05-07T08:03:57;2.27;;;1.30;;
12385;SDS011;6257;57.634;18.310;2023-05-07T08:06:24;2.80;;;1.37;;
12385;SDS011;6257;57.634;18.310;2023-05-07T08:08:52;2.53;;;1.30;;
12385;SDS011;6257;57.634;18.310;2023-05-07T08:11:19;1.87;;;1.30;;
12385;SDS011;6257;57.634;18.310;2023-05-07T08:13:46;2.03;;;1.50;;
12385;SDS011;6257;57.634;18.310;2023-05-07T08:16:14;4.67;;;1.20;;
12385;SDS011;6257;57.634;18.310;2023-05-07T08:18:42;2.20;;;1.20;;
12385;SDS011;6257;57.634;18.310;2023-05-07T08:21:09;1.60;;;1.20;;
12385;SDS011;6257;57.634;18.310;2023-05-07T08:23:36;3.53;;;1.30;;
12385;SDS011;6257;57.634;18.310;2023-05-07T08:26:03;7.00;;;1.50;;
12385;SDS011;6257;57.634;18.310;2023-05-07T08:28:30;4.67;;;1.50;;
12385;SDS011;6257;57.634;18.310;2023-05-07T08:30:57;3.00;;;1.50;;
12385;SDS011;6257;57.634;18.310;2023-05-07T08:33:27;2.07;;;1.40;;
12385;SDS011;6257;57.634;18.310;2023-05-07T08:35:54;3.97;;;1.47;;
12385;SDS011;6257;57.634;18.310;2023-05-07T08:38:21;1.90;;;1.20;;
12385;SDS011;6257;57.634;18.310;2023-05-07T08:40:48;1.93;;;1.50;;
12385;SDS011;6257;57.634;18.310;2023-05-07T08:43:15;2.87;;;1.40;;
12385;SDS011;6257;57.634;18.310;2023-05-07T08:45:44;2.77;;;1.27;;
12385;SDS011;6257;57.634;18.310;2023-05-07T08:48:15;2.83;;;1.30;;
12385;SDS011;6257;57.634;18.310;2023-05-07T08:50:44;3.17;;;1.60;;
12385;SDS011;6257;57.634;18.310;2023-05-07T08:53:11;3.10;;;1.50;;
12385;SDS011;6257;57.634;18.310;2023-05-07T08:55:38;3.40;;;1.50;;
12385;SDS011;6257;57.634;18.310;2023-05-07T08:58:06;3.73;;;1.40;;
12385;SDS011;6257;57.634;18.310;2023-05-07T09:00:33;2.27;;;1.40;;
12385;SDS011;6257;57.634;18.310;2023-05-07T09:03:00;4.43;;;1.50;;
12385;SDS011;6257;57.634;18.310;2023-05-07T09:05:28;3.80;;;1.60;;
12385;SDS011;6257;57.634;18.310;2023-05-07T09:07:58;4.10;;;1.60;;
12385;SDS011;6257;57.634;18.310;2023-05-07T09:10:25;1.80;;;1.30;;
12385;SDS011;6257;57.634;18.310;2023-05-07T09:12:52;3.43;;;1.37;;
12385;SDS011;6257;57.634;18.310;2023-05-07T09:15:19;4.77;;;1.57;;
12385;SDS011;6257;57.634;18.310;2023-05-07T09:17:47;2.77;;;1.50;;
12385;SDS011;6257;57.634;18.310;2023-05-07T09:20:14;2.20;;;1.60;;
12385;SDS011;6257;57.634;18.310;2023-05-07T09:22:42;2.83;;;1.53;;
12385;SDS011;6257;57.634;18.310;2023-05-07T09:25:11;5.13;;;1.70;;
12385;SDS011;6257;57.634;18.310;2023-05-07T09:27:38;2.70;;;1.40;;
12385;SDS011;6257;57.634;18.310;2023-05-07T09:30:08;4.20;;;1.60;;
12385;SDS011;6257;57.634;18.310;2023-05-07T09:32:35;3.10;;;1.63;;
12385;SDS011;6257;57.634;18.310;2023-05-07T09:35:04;2.30;;;1.27;;
12385;SDS011;6257;57.634;18.310;2023-05-07T09:37:32;1.53;;;1.30;;
12385;SDS011;6257;57.634;18.310;2023-05-07T09:39:59;2.37;;;1.40;;
12385;SDS011;6257;57.634;18.310;2023-05-07T09:42:28;2.27;;;1.43;;
12385;SDS011;6257;57.634;18.310;2023-05-07T09:44:55;3.53;;;1.60;;
12385;SDS011;6257;57.634;18.310;2023-05-07T09:47:23;5.27;;;1.40;;
12385;SDS011;6257;57.634;18.310;2023-05-07T09:49:52;5.03;;;1.50;;
12385;SDS011;6257;57.634;18.310;2023-05-07T09:52:23;4.33;;;1.70;;
12385;SDS011;6257;57.634;18.310;2023-05-07T09:54:53;5.37;;;1.83;;
12385;SDS011;6257;57.634;18.310;2023-05-07T09:57:24;3.27;;;1.80;;
12385;SDS011;6257;57.634;18.310;2023-05-07T09:59:54;3.33;;;1.53;;
12385;SDS011;6257;57.634;18.310;2023-05-07T10:02:22;4.60;;;1.90;;
12385;SDS011;6257;57.634;18.310;2023-05-07T10:04:51;1.93;;;1.60;;
12385;SDS011;6257;57.634;18.310;2023-05-07T10:07:20;3.37;;;1.50;;
12385;SDS011;6257;57.634;18.310;2023-05-07T10:09:49;2.73;;;1.50;;
12385;SDS011;6257;57.634;18.310;2023-05-07T10:12:17;1.90;;;1.40;;
12385;SDS011;6257;57.634;18.310;2023-05-07T10:14:44;3.93;;;1.70;;
12385;SDS011;6257;57.634;18.310;2023-05-07T10:17:14;4.23;;;1.57;;
12385;SDS011;6257;57.634;18.310;2023-05-07T10:19:44;2.93;;;1.40;;
12385;SDS011;6257;57.634;18.310;2023-05-07T10:22:11;4.30;;;1.57;;
12385;SDS011;6257;57.634;18.310;2023-05-07T10:24:40;2.90;;;1.40;;
12385;SDS011;6257;57.634;18.310;2023-05-07T10:27:09;4.10;;;1.70;;
12385;SDS011;6257;57.634;18.310;2023-05-07T10:29:42;4.30;;;1.83;;
12385;SDS011;6257;57.634;18.310;2023-05-07T10:32:24;4.50;;;1.27;;
12385;SDS011;6257;57.634;18.310;2023-05-07T10:35:02;3.50;;;1.70;;
12385;SDS011;6257;57.634;18.310;2023-05-07T10:37:32;2.10;;;1.70;;
12385;SDS011;6257;57.634;18.310;2023-05-07T10:40:00;2.37;;;1.60;;
12385;SDS011;6257;57.634;18.310;2023-05-07T10:42:28;2.10;;;1.40;;
12385;SDS011;6257;57.634;18.310;2023-05-07T10:44:55;2.50;;;1.70;;
12385;SDS011;6257;57.634;18.310;2023-05-07T10:47:24;2.93;;;1.60;;
12385;SDS011;6257;57.634;18.310;2023-05-07T10:52:46;6.37;;;1.80;;
12385;SDS011;6257;57.634;18.310;2023-05-07T10:58:53;4.93;;;2.00;;
12385;SDS011;6257;57.634;18.310;2023-05-07T11:04:19;3.57;;;1.50;;
12385;SDS011;6257;57.634;18.310;2023-05-07T11:09:59;5.83;;;1.90;;
12385;SDS011;6257;57.634;18.310;2023-05-07T11:15:40;2.07;;;1.43;;
12385;SDS011;6257;57.634;18.310;2023-05-07T11:18:09;4.03;;;1.83;;
12385;SDS011;6257;57.634;18.310;2023-05-07T11:20:52;1.40;;;1.30;;
12385;SDS011;6257;57.634;18.310;2023-05-07T11:26:23;4.03;;;1.70;;
12385;SDS011;6257;57.634;18.310;2023-05-07T11:28:51;4.97;;;1.73;;
12385;SDS011;6257;57.634;18.310;2023-05-07T11:31:23;2.73;;;1.50;;
12385;SDS011;6257;57.634;18.310;2023-05-07T11:33:52;3.00;;;1.57;;
12385;SDS011;6257;57.634;18.310;2023-05-07T11:36:22;2.00;;;1.70;;
12385;SDS011;6257;57.634;18.310;2023-05-07T11:38:49;3.03;;;1.70;;
12385;SDS011;6257;57.634;18.310;2023-05-07T11:41:16;2.43;;;1.63;;
12385;SDS011;6257;57.634;18.310;2023-05-07T11:43:54;1.97;;;1.60;;
12385;SDS011;6257;57.634;18.310;2023-05-07T11:46:25;6.60;;;1.77;;
12385;SDS011;6257;57.634;18.310;2023-05-07T11:48:53;1.90;;;1.40;;
12385;SDS011;6257;57.634;18.310;2023-05-07T11:51:22;3.30;;;1.60;;
12385;SDS011;6257;57.634;18.310;2023-05-07T11:53:51;3.17;;;1.40;;
12385;SDS011;6257;57.634;18.310;2023-05-07T11:56:18;4.40;;;1.63;;
12385;SDS011;6257;57.634;18.310;2023-05-07T11:58:46;4.80;;;1.80;;
12385;SDS011;6257;57.634;18.310;2023-05-07T12:01:15;2.90;;;1.60;;
12385;SDS011;6257;57.634;18.310;2023-05-07T12:03:44;3.23;;;1.50;;
12385;SDS011;6257;57.634;18.310;2023-05-07T12:06:12;5.93;;;1.70;;
12385;SDS011;6257;57.634;18.310;2023-05-07T12:08:42;4.60;;;1.60;;
12385;SDS011;6257;57.634;18.310;2023-05-07T12:11:13;2.90;;;1.70;;
12385;SDS011;6257;57.634;18.310;2023-05-07T12:13:42;2.43;;;1.50;;
12385;SDS011;6257;57.634;18.310;2023-05-07T12:16:10;3.80;;;1.47;;
12385;SDS011;6257;57.634;18.310;2023-05-07T12:18:37;2.50;;;1.37;;
12385;SDS011;6257;57.634;18.310;2023-05-07T12:21:05;3.00;;;1.57;;
12385;SDS011;6257;57.634;18.310;2023-05-07T12:23:33;3.83;;;1.60;;
12385;SDS011;6257;57.634;18.310;2023-05-07T12:26:03;1.60;;;1.47;;
12385;SDS011;6257;57.634;18.310;2023-05-07T12:28:30;4.37;;;1.80;;
12385;SDS011;6257;57.634;18.310;2023-05-07T12:31:02;2.90;;;1.40;;
12385;SDS011;6257;57.634;18.310;2023-05-07T12:33:30;1.43;;;1.30;;
12385;SDS011;6257;57.634;18.310;2023-05-07T12:35:58;2.60;;;1.30;;
12385;SDS011;6257;57.634;18.310;2023-05-07T12:38:32;1.33;;;1.23;;
12385;SDS011;6257;57.634;18.310;2023-05-07T12:41:03;4.53;;;2.07;;
12385;SDS011;6257;57.634;18.310;2023-05-07T12:43:30;2.93;;;1.50;;
12385;SDS011;6257;57.634;18.310;2023-05-07T12:45:59;2.50;;;1.33;;
12385;SDS011;6257;57.634;18.310;2023-05-07T12:48:27;2.47;;;1.30;;
12385;SDS011;6257;57.634;18.310;2023-05-07T12:50:55;3.40;;;1.30;;
12385;SDS011;6257;57.634;18.310;2023-05-07T12:53:23;2.33;;;1.40;;
12385;SDS011;6257;57.634;18.310;2023-05-07T12:55:51;1.60;;;1.30;;
12385;SDS011;6257;57.634;18.310;2023-05-07T12:58:26;6.77;;;1.70;;
12385;SDS011;6257;57.634;18.310;2023-05-07T13:00:54;4.03;;;1.60;;
12385;SDS011;6257;57.634;18.310;2023-05-07T13:03:26;4.47;;;1.73;;
12385;SDS011;6257;57.634;18.310;2023-05-07T13:05:55;3.03;;;1.40;;
12385;SDS011;6257;57.634;18.310;2023-05-07T13:08:27;2.50;;;1.57;;
12385;SDS011;6257;57.634;18.310;2023-05-07T13:10:57;1.60;;;1.20;;
12385;SDS011;6257;57.634;18.310;2023-05-07T13:13:26;5.87;;;1.50;;
12385;SDS011;6257;57.634;18.310;2023-05-07T13:15:53;4.20;;;1.57;;
12385;SDS011;6257;57.634;18.310;2023-05-07T13:18:20;4.70;;;1.60;;
12385;SDS011;6257;57.634;18.310;2023-05-07T13:20:48;3.97;;;1.67;;
12385;SDS011;6257;57.634;18.310;2023-05-07T13:23:15;2.83;;;1.43;;
12385;SDS011;6257;57.634;18.310;2023-05-07T13:25:42;4.37;;;1.50;;
12385;SDS011;6257;57.634;18.310;2023-05-07T13:28:09;3.03;;;1.63;;
12385;SDS011;6257;57.634;18.310;2023-05-07T13:30:37;2.90;;;1.67;;
12385;SDS011;6257;57.634;18.310;2023-05-07T13:33:06;3.63;;;1.67;;
12385;SDS011;6257;57.634;18.310;2023-05-07T13:35:33;2.93;;;1.40;;
12385;SDS011;6257;57.634;18.310;2023-05-07T13:38:00;3.33;;;1.40;;
12385;SDS011;6257;57.634;18.310;2023-05-07T13:40:33;5.20;;;1.40;;
12385;SDS011;6257;57.634;18.310;2023-05-07T13:43:00;4.47;;;1.50;;
12385;SDS011;6257;57.634;18.310;2023-05-07T13:45:28;3.90;;;1.30;;
12385;SDS011;6257;57.634;18.310;2023-05-07T13:47:57;2.93;;;1.40;;
12385;SDS011;6257;57.634;18.310;2023-05-07T13:50:24;2.37;;;1.30;;
12385;SDS011;6257;57.634;18.310;2023-05-07T13:52:55;1.57;;;1.20;;
12385;SDS011;6257;57.634;18.310;2023-05-07T13:55:23;3.40;;;1.60;;
12385;SDS011;6257;57.634;18.310;2023-05-07T13:57:54;1.43;;;1.23;;
12385;SDS011;6257;57.634;18.310;2023-05-07T14:00:22;4.70;;;1.70;;
12385;SDS011;6257;57.634;18.310;2023-05-07T14:02:51;2.17;;;1.50;;
12385;SDS011;6257;57.634;18.310;2023-05-07T14:05:19;3.97;;;1.57;;
12385;SDS011;6257;57.634;18.310;2023-05-07T14:07:48;4.60;;;1.90;;
12385;SDS011;6257;57.634;18.310;2023-05-07T14:10:16;4.03;;;1.50;;
12385;SDS011;6257;57.634;18.310;2023-05-07T14:12:44;3.23;;;1.40;;
12385;SDS011;6257;57.634;18.310;2023-05-07T14:15:11;3.10;;;1.43;;
12385;SDS011;6257;57.634;18.310;2023-05-07T14:17:38;3.07;;;1.20;;
12385;SDS011;6257;57.634;18.310;2023-05-07T14:20:06;3.33;;;1.60;;
12385;SDS011;6257;57.634;18.310;2023-05-07T14:22:37;2.47;;;1.40;;
12385;SDS011;6257;57.634;18.310;2023-05-07T14:25:05;6.00;;;1.53;;
12385;SDS011;6257;57.634;18.310;2023-05-07T14:27:33;5.50;;;1.50;;
12385;SDS011;6257;57.634;18.310;2023-05-07T14:30:00;2.47;;;1.47;;
12385;SDS011;6257;57.634;18.310;2023-05-07T14:32:27;2.90;;;1.40;;
12385;SDS011;6257;57.634;18.310;2023-05-07T14:34:54;2.87;;;1.70;;
12385;SDS011;6257;57.634;18.310;2023-05-07T14:37:21;2.13;;;1.40;;
12385;SDS011;6257;57.634;18.310;2023-05-07T14:39:49;5.03;;;1.70;;
12385;SDS011;6257;57.634;18.310;2023-05-07T14:42:16;2.83;;;1.50;;
12385;SDS011;6257;57.634;18.310;2023-05-07T14:44:43;3.27;;;1.50;;
12385;SDS011;6257;57.634;18.310;2023-05-07T14:47:11;2.17;;;1.40;;
12385;SDS011;6257;57.634;18.310;2023-05-07T14:49:38;1.67;;;1.40;;
12385;SDS011;6257;57.634;18.310;2023-05-07T14:52:05;3.40;;;1.50;;
12385;SDS011;6257;57.634;18.310;2023-05-07T14:54:34;2.93;;;1.47;;
12385;SDS011;6257;57.634;18.310;2023-05-07T14:57:04;2.47;;;1.63;;
12385;SDS011;6257;57.634;18.310;2023-05-07T14:59:32;5.50;;;1.67;;
12385;SDS011;6257;57.634;18.310;2023-05-07T15:01:59;2.83;;;1.50;;
12385;SDS011;6257;57.634;18.310;2023-05-07T15:04:26;3.47;;;1.60;;
12385;SDS011;6257;57.634;18.310;2023-05-07T15:06:53;3.20;;;1.60;;
12385;SDS011;6257;57.634;18.310;2023-05-07T15:09:21;3.33;;;1.53;;
12385;SDS011;6257;57.634;18.310;2023-05-07T15:11:48;2.70;;;1.43;;